Startpagina
METAR-TAF:

METAR-TAF

Vliegvelden :

Luchthaven Phnom Penh

Phnom-Penh, Cambodja

breedte: 11-33N, lengte: 104-51E, hoogte: 10 m

Actueel weer

Dit bericht is 30 minuten geleden gemaakt, om 12:00 UTC
Wind 8 kt uit het zuidzuidoosten
Temperatuur 29°C
Vochtigheid 66%
Druk 1008 hPa
Zicht 10 km of meer
Weinig wolken op 1700 ft

METAR: VDPP 271200Z 16008KT 9999 FEW017 29/22 Q1008

Tijdstip: 19:30 (12:30 UTC)

Verwachting

Dit bericht is 1 uur en het 30 minuten geleden gemaakt, om 11:00 UTC
Verwachting geldig van 27 om 12 UTC tot 28 om 06 UTC
Wind 7 kt uit het zuidzuidoosten
Zicht 10 km of meer
Verspreide wolken op 1700 ft

TAF: VDPP 271100Z 2712/2806 15007KT 9999 SCT017

Waarnemingen en weersverwachtingen van meer dan 4000 vliegvelden (METAR en TAF).

De beschikbare stations zijn de gele en rode punten op de kaart.

Ga met uw muis naar het station om de naam te zien.

Klik dan om waarnemingen en weersverwachtingen te zien.

kaart wijzigen: klik op de groene knoppen met een zwart kruis om in te zoomen, op de groene knop met een streepje om uit te zoomen of op de groene pijlen voor aangrenzende kaarten.


METAR-TAF: